createdAt,value
2017-10-25T00:00:01.491Z,63.82
2017-10-25T00:02:30.000Z,63.96
2017-10-25T00:04:58.345Z,64.01
2017-10-25T00:07:26.751Z,64.05
2017-10-25T00:09:55.037Z,64.07
2017-10-25T00:12:23.407Z,64.14
2017-10-25T00:14:51.699Z,64.14
2017-10-25T00:17:20.031Z,64.14
2017-10-25T00:19:48.295Z,64.05
2017-10-25T00:22:16.627Z,64.08
2017-10-25T00:24:44.890Z,64.10
2017-10-25T00:27:13.377Z,64.13
2017-10-25T00:29:41.699Z,64.13
2017-10-25T00:32:10.128Z,64.21
2017-10-25T00:34:38.796Z,64.12
2017-10-25T00:37:07.128Z,64.19
2017-10-25T00:39:35.412Z,64.00
2017-10-25T00:42:03.873Z,64.01
2017-10-25T00:44:32.396Z,64.02
2017-10-25T00:47:00.821Z,63.99
2017-10-25T00:49:29.271Z,63.95
2017-10-25T00:51:57.631Z,63.99
2017-10-25T00:54:26.023Z,64.05
2017-10-25T00:56:54.376Z,64.00
2017-10-25T00:59:22.666Z,64.05
2017-10-25T01:01:51.012Z,64.06
2017-10-25T01:04:19.439Z,64.04
2017-10-25T01:06:47.931Z,63.98
2017-10-25T01:09:16.399Z,63.99
2017-10-25T01:11:44.695Z,64.13
2017-10-25T01:14:13.142Z,63.86
2017-10-25T01:16:41.461Z,63.85
2017-10-25T01:19:09.895Z,64.01
2017-10-25T01:21:38.233Z,64.01
2017-10-25T01:24:06.659Z,63.99
2017-10-25T01:26:35.141Z,63.98
2017-10-25T01:29:03.454Z,63.92
2017-10-25T01:31:31.759Z,63.98
2017-10-25T01:34:00.069Z,63.96
2017-10-25T01:36:28.504Z,63.96
2017-10-25T01:38:56.795Z,63.95
2017-10-25T01:41:25.075Z,63.81
2017-10-25T01:43:53.432Z,63.86
2017-10-25T01:46:21.775Z,63.89
2017-10-25T01:48:50.268Z,63.84
2017-10-25T01:51:18.751Z,63.93
2017-10-25T01:53:47.047Z,63.90
2017-10-25T01:56:15.369Z,63.91
2017-10-25T01:58:43.647Z,64.00
2017-10-25T02:01:11.941Z,63.94
2017-10-25T02:03:40.400Z,63.93
2017-10-25T02:06:08.709Z,63.86
2017-10-25T02:08:36.988Z,63.81
2017-10-25T02:11:05.283Z,63.86
2017-10-25T02:13:33.585Z,63.94
2017-10-25T02:16:01.892Z,63.88
2017-10-25T02:18:30.183Z,63.85
2017-10-25T02:20:59.577Z,63.89
2017-10-25T02:23:27.847Z,63.81
2017-10-25T02:25:56.255Z,63.75
2017-10-25T02:28:24.690Z,63.81
2017-10-25T02:30:53.011Z,63.78
2017-10-25T02:33:21.293Z,63.87
2017-10-25T02:35:49.599Z,63.75
2017-10-25T02:38:18.024Z,63.80
2017-10-25T02:40:46.324Z,63.83
2017-10-25T02:43:14.605Z,63.79
2017-10-25T02:45:42.904Z,63.71
2017-10-25T02:50:38.416Z,63.71
2017-10-25T02:53:06.695Z,63.68
2017-10-25T02:55:34.992Z,63.74
2017-10-25T02:58:03.420Z,63.72
2017-10-25T03:00:31.716Z,63.59
2017-10-25T03:02:59.995Z,63.63
2017-10-25T03:05:28.470Z,63.72
2017-10-25T03:07:56.844Z,63.69
2017-10-25T03:10:25.176Z,63.62
2017-10-25T03:12:53.524Z,63.66
2017-10-25T03:15:21.825Z,63.68
2017-10-25T03:17:50.091Z,63.70
2017-10-25T03:20:18.536Z,63.71
2017-10-25T03:22:46.802Z,63.64
2017-10-25T03:25:15.228Z,63.64
2017-10-25T03:27:43.512Z,63.59
2017-10-25T03:30:11.803Z,63.51
2017-10-25T03:32:40.071Z,63.62
2017-10-25T03:35:08.412Z,63.67
2017-10-25T03:37:36.735Z,63.54
2017-10-25T03:40:05.255Z,63.48
2017-10-25T03:42:33.579Z,63.55
2017-10-25T03:45:01.845Z,63.66
2017-10-25T03:47:30.207Z,63.68
2017-10-25T03:49:58.558Z,63.73
2017-10-25T03:52:26.897Z,63.74
2017-10-25T03:54:55.320Z,63.73
2017-10-25T03:59:50.823Z,63.68
2017-10-25T04:02:19.141Z,63.59
2017-10-25T04:04:47.429Z,63.64
2017-10-25T04:07:15.767Z,63.54
2017-10-25T04:09:44.064Z,63.58
2017-10-25T04:12:12.380Z,63.56
2017-10-25T04:14:40.676Z,63.55
2017-10-25T04:17:09.075Z,63.63
2017-10-25T04:19:37.358Z,63.57
2017-10-25T04:22:05.676Z,63.52
2017-10-25T04:24:34.108Z,63.54
2017-10-25T04:27:02.443Z,63.59
2017-10-25T04:29:30.852Z,63.52
2017-10-25T04:31:59.156Z,63.60
2017-10-25T04:34:27.424Z,63.64
2017-10-25T04:36:55.741Z,63.62
2017-10-25T04:39:24.034Z,63.64
2017-10-25T04:41:52.413Z,63.43
2017-10-25T04:44:20.700Z,63.44
2017-10-25T04:46:49.023Z,63.46
2017-10-25T04:49:17.333Z,63.58
2017-10-25T04:51:45.683Z,63.70
2017-10-25T04:54:14.022Z,63.80
2017-10-25T04:56:42.344Z,63.88
2017-10-25T04:59:10.693Z,64.18
2017-10-25T05:01:39.032Z,64.34
2017-10-25T05:04:07.391Z,64.41
2017-10-25T05:06:35.800Z,65.09
2017-10-25T05:09:04.235Z,64.89
2017-10-25T05:11:32.588Z,65.27
2017-10-25T05:14:00.894Z,64.99
2017-10-25T05:16:29.192Z,65.06
2017-10-25T05:18:57.469Z,65.03
2017-10-25T05:21:25.781Z,64.95
2017-10-25T05:23:54.106Z,64.94
2017-10-25T05:26:22.460Z,64.94
2017-10-25T05:28:50.748Z,64.94
2017-10-25T05:31:19.046Z,64.89
2017-10-25T05:33:47.412Z,64.90
2017-10-25T05:36:15.734Z,64.96
2017-10-25T05:38:44.110Z,65.05
2017-10-25T05:41:12.728Z,65.15
2017-10-25T05:43:40.980Z,65.27
2017-10-25T05:46:09.288Z,65.57
2017-10-25T05:48:37.638Z,65.63
2017-10-25T05:51:12.464Z,65.87
2017-10-25T05:53:40.819Z,65.97
2017-10-25T05:56:09.123Z,66.09
2017-10-25T05:58:37.416Z,66.17
2017-10-25T06:01:05.732Z,66.47
2017-10-25T06:03:34.163Z,66.78
2017-10-25T06:06:03.248Z,66.77
2017-10-25T06:08:31.718Z,66.74
2017-10-25T06:11:00.045Z,66.81
2017-10-25T06:13:28.309Z,66.84
2017-10-25T06:15:56.643Z,66.99
2017-10-25T06:18:24.978Z,66.95
2017-10-25T06:20:53.560Z,67.19
2017-10-25T06:23:21.865Z,67.20
2017-10-25T06:25:51.366Z,67.26
2017-10-25T06:28:22.115Z,67.05
2017-10-25T06:30:50.456Z,66.98
2017-10-25T06:33:18.742Z,66.93
2017-10-25T06:35:47.063Z,66.85
2017-10-25T06:38:15.372Z,66.80
2017-10-25T06:40:43.756Z,66.83
2017-10-25T06:43:12.077Z,66.71
2017-10-25T06:45:40.412Z,66.63
2017-10-25T06:48:08.684Z,66.64
2017-10-25T06:50:37.016Z,66.58
2017-10-25T06:53:05.307Z,66.54
2017-10-25T06:55:33.851Z,66.52
2017-10-25T06:58:02.135Z,66.54
2017-10-25T07:00:30.453Z,66.52
2017-10-25T07:02:58.761Z,66.52
2017-10-25T07:05:27.540Z,66.50
2017-10-25T07:07:56.042Z,66.44
2017-10-25T07:10:24.575Z,66.46
2017-10-25T07:12:53.050Z,66.47
2017-10-25T07:15:21.427Z,66.44
2017-10-25T07:17:49.703Z,66.44
2017-10-25T07:20:18.020Z,66.41
2017-10-25T07:22:46.295Z,66.34
2017-10-25T07:25:14.644Z,66.30
2017-10-25T07:27:42.912Z,66.21
2017-10-25T07:30:11.231Z,66.17
2017-10-25T07:32:39.495Z,66.20
2017-10-25T07:35:07.911Z,66.12
2017-10-25T07:37:36.207Z,66.09
2017-10-25T07:40:05.132Z,66.00
2017-10-25T07:42:33.423Z,65.88
2017-10-25T07:45:01.700Z,65.76
2017-10-25T07:47:30.064Z,65.57
2017-10-25T07:49:58.589Z,65.54
2017-10-25T07:52:26.947Z,65.57
2017-10-25T07:54:55.375Z,65.46
2017-10-25T07:57:23.879Z,65.42
2017-10-25T07:59:52.159Z,65.49
2017-10-25T08:02:20.459Z,65.38
2017-10-25T08:04:48.792Z,65.39
2017-10-25T08:07:17.097Z,65.32
2017-10-25T08:09:45.547Z,65.34
2017-10-25T08:12:14.047Z,65.25
2017-10-25T08:14:42.543Z,65.27
2017-10-25T08:17:10.867Z,65.23
2017-10-25T08:19:39.156Z,65.22
2017-10-25T08:22:07.786Z,65.22
2017-10-25T08:24:36.082Z,65.12
2017-10-25T08:27:04.376Z,65.14
2017-10-25T08:29:32.636Z,65.06
2017-10-25T08:32:00.952Z,65.05
2017-10-25T08:34:29.307Z,65.06
2017-10-25T08:36:57.623Z,65.03
2017-10-25T08:39:25.936Z,65.10
2017-10-25T08:41:54.392Z,65.05
2017-10-25T08:44:22.696Z,65.11
2017-10-25T08:46:51.004Z,64.82
2017-10-25T08:49:19.304Z,64.58
2017-10-25T08:51:47.607Z,64.41
2017-10-25T08:54:15.952Z,64.43
2017-10-25T08:56:44.248Z,64.47
2017-10-25T08:59:13.371Z,64.48
2017-10-25T09:01:41.720Z,64.37
2017-10-25T09:04:10.030Z,64.41
2017-10-25T09:06:38.579Z,64.22
2017-10-25T09:09:07.028Z,64.06
2017-10-25T09:11:35.335Z,63.94
2017-10-25T09:14:03.636Z,64.03
2017-10-25T09:16:32.504Z,64.04
2017-10-25T09:19:01.924Z,64.04
2017-10-25T09:21:30.660Z,63.96
2017-10-25T09:23:59.223Z,63.91
2017-10-25T09:26:27.736Z,63.98
2017-10-25T09:28:56.104Z,64.03
2017-10-25T09:31:24.588Z,63.96
2017-10-25T09:33:53.279Z,63.92
2017-10-25T09:36:21.915Z,63.86
2017-10-25T09:38:50.767Z,63.72
2017-10-25T09:41:19.109Z,63.76
2017-10-25T09:43:47.543Z,63.81
2017-10-25T09:46:16.005Z,63.80
2017-10-25T09:48:44.564Z,63.84
2017-10-25T09:51:13.039Z,63.88
2017-10-25T09:53:41.523Z,63.84
2017-10-25T09:56:09.832Z,63.88
2017-10-25T09:58:38.136Z,63.86
2017-10-25T10:01:07.438Z,63.87
2017-10-25T10:03:35.757Z,63.96
2017-10-25T10:06:04.627Z,63.89
2017-10-25T10:11:00.142Z,63.87
2017-10-25T10:13:28.419Z,63.72
2017-10-25T10:15:56.755Z,63.76
2017-10-25T10:18:25.228Z,63.63
2017-10-25T10:20:53.539Z,63.60
2017-10-25T10:23:21.837Z,63.49
2017-10-25T10:25:50.309Z,63.60
2017-10-25T10:28:18.659Z,63.55
2017-10-25T10:30:47.056Z,63.42
2017-10-25T10:33:15.405Z,63.51
2017-10-25T10:35:43.726Z,63.37
2017-10-25T10:38:12.000Z,63.26
2017-10-25T10:40:41.213Z,63.28
2017-10-25T10:43:09.562Z,63.21
2017-10-25T10:45:37.929Z,63.16
2017-10-25T10:48:06.225Z,63.20
2017-10-25T10:50:34.532Z,63.20
2017-10-25T10:53:03.051Z,63.18
2017-10-25T10:55:31.365Z,63.03
2017-10-25T10:58:03.915Z,63.03
2017-10-25T11:00:33.467Z,62.96
2017-10-25T11:03:02.680Z,63.04
2017-10-25T11:05:30.984Z,63.21
2017-10-25T11:07:59.353Z,63.41
2017-10-25T11:10:27.949Z,63.39
2017-10-25T11:12:56.305Z,63.40
2017-10-25T11:15:24.807Z,63.35
2017-10-25T11:17:53.204Z,63.47
2017-10-25T11:20:22.497Z,63.33
2017-10-25T11:22:50.820Z,63.14
2017-10-25T11:25:20.397Z,63.08
2017-10-25T11:27:48.684Z,62.98
2017-10-25T11:30:17.011Z,63.08
2017-10-25T11:32:45.540Z,63.16
2017-10-25T11:35:13.972Z,63.00
2017-10-25T11:37:47.959Z,62.90
2017-10-25T11:40:16.367Z,62.98
2017-10-25T11:42:44.657Z,63.06
2017-10-25T11:45:13.262Z,63.08
2017-10-25T11:47:41.723Z,63.17
2017-10-25T11:50:10.291Z,63.15
2017-10-25T11:52:38.716Z,63.31
2017-10-25T11:55:07.926Z,63.36
2017-10-25T11:57:36.251Z,63.40
2017-10-25T12:00:06.200Z,63.22
2017-10-25T12:02:34.782Z,63.25
2017-10-25T12:05:03.134Z,63.32
2017-10-25T12:07:33.087Z,63.20
2017-10-25T12:10:01.388Z,63.18
2017-10-25T12:12:29.767Z,63.20
2017-10-25T12:14:58.151Z,63.06
2017-10-25T12:17:26.503Z,62.95
2017-10-25T12:19:54.907Z,63.04
2017-10-25T12:22:23.371Z,63.12
2017-10-25T12:24:51.647Z,63.15
2017-10-25T12:27:20.147Z,63.22
2017-10-25T12:29:48.481Z,63.27
2017-10-25T12:32:16.964Z,63.26
2017-10-25T12:34:45.378Z,63.18
2017-10-25T12:37:13.883Z,63.13
2017-10-25T12:39:42.328Z,62.96
2017-10-25T12:42:10.669Z,62.89
2017-10-25T12:44:38.956Z,62.92
2017-10-25T12:47:07.437Z,63.00
2017-10-25T12:49:35.853Z,62.95
2017-10-25T12:52:04.868Z,63.07
2017-10-25T12:54:33.229Z,63.12
2017-10-25T12:57:01.751Z,63.19
2017-10-25T12:59:30.211Z,63.19
2017-10-25T13:01:58.675Z,63.29
2017-10-25T13:04:27.168Z,63.38
2017-10-25T13:06:55.489Z,63.45
2017-10-25T13:09:24.030Z,63.49
2017-10-25T13:12:01.661Z,63.41
